Time;durP1;ratioP1;P1;durP2;ratioP2;P2;SDS_P1;SDS_P2;PMS_P1;PMS_P2;Temp;Humidity;BMP_temperature;BMP_pressure;BME280_temperature;BME280_humidity;BME280_pressure;Samples;Min_cycle;Max_cycle;Signal;HPM_P1;HPM_P2
2023/01/17 00:00:10;;;;;;;2.72;0.28;;;4.60;99.90;;;;;;5070475;28;20039;-78
2023/01/17 00:02:36;;;;;;;0.30;0.20;;;4.60;99.90;;;;;;5072859;28;20044;-78
2023/01/17 00:10:31;;;;;;;0.00;0.00;;;4.60;99.90;;;;;;5087684;28;20525;-78
2023/01/17 00:12:58;;;;;;;0.10;0.08;;;4.60;99.90;;;;;;5077810;28;20041;-79
2023/01/17 00:15:26;;;;;;;0.55;0.30;;;4.60;99.90;;;;;;5054467;28;20036;-78
2023/01/17 00:17:52;;;;;;;0.10;0.10;;;4.50;99.90;;;;;;5083437;28;20036;-79
2023/01/17 00:26:14;;;;;;;0.43;0.28;;;4.50;99.90;;;;;;5074917;28;20040;-79
2023/01/17 01:35:42;;;;;;;0.05;0.03;;;3.60;99.90;;;;;;5085743;28;20040;-79
2023/01/17 01:38:08;;;;;;;0.00;0.00;;;3.60;99.90;;;;;;5070310;28;20043;-80
2023/01/17 01:40:33;;;;;;;0.20;0.10;;;3.60;99.90;;;;;;5074781;28;20036;-79
2023/01/17 01:43:01;;;;;;;0.08;0.08;;;3.60;99.90;;;;;;5080827;28;20493;-79
2023/01/17 01:45:30;;;;;;;0.28;0.10;;;3.60;99.90;;;;;;5064455;28;20085;-80
2023/01/17 01:48:17;;;;;;;0.30;0.05;;;3.60;99.90;;;;;;5077924;28;20112;-79
2023/01/17 01:50:43;;;;;;;0.00;0.00;;;3.60;99.90;;;;;;5056498;28;20119;-79
2023/01/17 01:53:09;;;;;;;0.30;0.10;;;3.60;99.90;;;;;;5075261;28;20119;-80
2023/01/17 01:55:38;;;;;;;0.73;0.20;;;3.60;99.90;;;;;;5074164;28;20640;-80
2023/01/17 01:58:11;;;;;;;0.00;0.00;;;3.50;99.90;;;;;;5079861;28;20035;-80
2023/01/17 02:00:39;;;;;;;0.20;0.10;;;3.50;99.90;;;;;;5077068;28;20071;-80
2023/01/17 02:03:09;;;;;;;0.90;0.43;;;3.50;99.90;;;;;;5087353;28;20048;-80
2023/01/17 02:05:35;;;;;;;1.27;0.20;;;3.50;99.90;;;;;;5065553;28;20042;-80
2023/01/17 02:08:10;;;;;;;0.00;0.00;;;3.50;99.90;;;;;;5054133;28;20040;-80
2023/01/17 02:10:38;;;;;;;0.20;0.10;;;3.50;99.90;;;;;;5064162;28;20406;-80
2023/01/17 02:13:05;;;;;;;0.00;0.00;;;3.50;99.90;;;;;;5058241;28;20028;-80
2023/01/17 02:16:11;;;;;;;0.85;0.20;;;3.50;99.90;;;;;;5077075;28;20040;-80
2023/01/17 02:18:58;;;;;;;1.02;0.08;;;3.50;99.90;;;;;;5051734;28;20071;-79
2023/01/17 02:21:26;;;;;;;0.22;0.10;;;3.40;99.90;;;;;;5055710;28;20040;-80
2023/01/17 02:24:16;;;;;;;0.10;0.10;;;3.40;99.90;;;;;;5079036;28;20036;-80
2023/01/17 02:26:56;;;;;;;1.45;0.43;;;3.40;99.90;;;;;;5070637;28;20139;-79
2023/01/17 02:29:59;;;;;;;0.03;0.03;;;3.40;99.90;;;;;;5088547;28;20401;-79
2023/01/17 02:32:46;;;;;;;0.30;0.03;;;3.40;99.90;;;;;;5080743;28;20036;-80
2023/01/17 02:35:30;;;;;;;0.00;0.00;;;3.40;99.90;;;;;;5078855;28;20493;-80
2023/01/17 02:38:13;;;;;;;0.20;0.15;;;3.40;99.90;;;;;;5069570;28;20418;-80
2023/01/17 02:40:56;;;;;;;0.30;0.25;;;3.30;99.90;;;;;;5066325;28;20603;-80
2023/01/17 02:43:23;;;;;;;0.00;0.00;;;3.30;99.90;;;;;;5076792;28;20047;-80
2023/01/17 02:45:49;;;;;;;0.73;0.20;;;3.30;99.90;;;;;;5053360;28;20575;-80
2023/01/17 02:48:20;;;;;;;0.00;0.00;;;3.30;99.90;;;;;;5073170;28;20060;-80
2023/01/17 02:51:07;;;;;;;2.40;0.20;;;3.30;99.90;;;;;;5087103;28;20032;-80
2023/01/17 02:54:11;;;;;;;0.98;0.52;;;3.30;99.90;;;;;;5077282;28;20043;-80
2023/01/17 02:57:02;;;;;;;0.57;0.28;;;3.30;99.90;;;;;;5074964;28;20036;-80
2023/01/17 02:59:36;;;;;;;0.65;0.20;;;3.30;99.90;;;;;;5087177;28;20043;-80
2023/01/17 03:02:05;;;;;;;0.03;0.03;;;3.40;99.90;;;;;;5087409;28;20051;-80
2023/01/17 03:04:41;;;;;;;0.13;0.10;;;3.40;99.90;;;;;;5062381;28;20048;-80
2023/01/17 03:07:15;;;;;;;0.52;0.20;;;3.40;99.90;;;;;;5065790;28;20040;-80
2023/01/17 03:09:45;;;;;;;2.83;0.75;;;3.40;99.90;;;;;;5079276;28;20106;-80
2023/01/17 03:12:12;;;;;;;0.00;0.00;;;3.40;99.90;;;;;;5086441;28;20040;-80
2023/01/17 03:14:37;;;;;;;0.38;0.10;;;3.40;99.90;;;;;;5065330;28;20487;-80
2023/01/17 03:17:03;;;;;;;0.60;0.28;;;3.50;99.90;;;;;;5080572;28;20086;-80
2023/01/17 03:19:30;;;;;;;1.27;0.13;;;3.50;99.90;;;;;;5083395;28;20094;-80
2023/01/17 03:21:55;;;;;;;0.60;0.20;;;3.50;99.90;;;;;;5078573;28;20608;-80
2023/01/17 03:24:21;;;;;;;1.10;0.40;;;3.50;99.90;;;;;;5076889;28;20082;-80
2023/01/17 03:26:47;;;;;;;3.40;0.38;;;3.40;99.90;;;;;;5071449;28;20056;-80
2023/01/17 03:29:13;;;;;;;0.95;0.28;;;3.30;99.90;;;;;;5066172;28;20517;-80
2023/01/17 03:31:39;;;;;;;0.00;0.00;;;3.30;99.90;;;;;;5059669;28;20044;-80
2023/01/17 03:34:05;;;;;;;0.82;0.05;;;3.30;99.90;;;;;;5087171;28;20039;-80
2023/01/17 03:36:30;;;;;;;0.00;0.00;;;3.30;99.90;;;;;;5084406;28;20513;-80
2023/01/17 03:38:56;;;;;;;0.25;0.20;;;3.30;99.90;;;;;;5091913;28;20129;-80
2023/01/17 03:41:22;;;;;;;0.00;0.00;;;3.30;99.90;;;;;;5095062;28;20036;-80
2023/01/17 03:43:48;;;;;;;0.13;0.10;;;3.30;99.90;;;;;;5071275;28;20036;-80
2023/01/17 03:46:22;;;;;;;0.20;0.10;;;3.30;99.90;;;;;;5066791;28;20037;-79
2023/01/17 03:48:48;;;;;;;1.75;0.35;;;3.30;99.90;;;;;;5075700;28;20040;-80
2023/01/17 03:51:14;;;;;;;1.75;0.22;;;3.30;99.90;;;;;;5082042;28;20490;-79
2023/01/17 03:53:40;;;;;;;0.17;0.10;;;3.30;99.90;;;;;;5071327;28;20040;-80
2023/01/17 03:56:06;;;;;;;4.30;0.30;;;3.30;99.90;;;;;;5069656;28;20048;-79
2023/01/17 03:58:32;;;;;;;0.20;0.10;;;3.30;99.90;;;;;;5061726;28;20043;-80
2023/01/17 04:00:57;;;;;;;0.00;0.00;;;3.30;99.90;;;;;;5061143;28;20040;-80
2023/01/17 04:03:23;;;;;;;1.63;0.10;;;3.30;99.90;;;;;;5065751;28;20052;-79
2023/01/17 04:05:48;;;;;;;0.00;0.00;;;3.30;99.90;;;;;;5072985;28;20047;-80
2023/01/17 04:08:14;;;;;;;0.30;0.17;;;3.20;99.90;;;;;;5070247;28;20104;-79
2023/01/17 04:10:39;;;;;;;0.10;0.00;;;3.20;99.90;;;;;;5072934;28;20059;-80
2023/01/17 04:13:05;;;;;;;0.00;0.00;;;3.30;99.90;;;;;;5056162;28;20045;-80
2023/01/17 04:15:32;;;;;;;0.45;0.10;;;3.20;99.90;;;;;;5092108;28;20036;-79
2023/01/17 04:17:58;;;;;;;0.38;0.20;;;3.20;99.90;;;;;;5083601;28;20048;-80
2023/01/17 04:20:34;;;;;;;0.03;0.03;;;3.20;99.90;;;;;;5056080;28;20040;-79
2023/01/17 04:23:00;;;;;;;0.38;0.20;;;3.20;99.90;;;;;;5055839;28;20075;-79
2023/01/17 04:25:28;;;;;;;0.08;0.00;;;3.10;99.90;;;;;;5052770;28;20600;-79
2023/01/17 04:27:54;;;;;;;0.00;0.00;;;3.10;99.90;;;;;;5052936;28;20037;-79
2023/01/17 04:30:20;;;;;;;0.00;0.00;;;3.00;99.90;;;;;;5053305;28;20130;-80
2023/01/17 04:32:45;;;;;;;0.47;0.15;;;3.00;99.90;;;;;;5062807;28;20079;-79
2023/01/17 04:35:11;;;;;;;0.17;0.13;;;3.00;99.90;;;;;;5083324;28;20108;-79
2023/01/17 04:37:36;;;;;;;4.75;0.40;;;3.00;99.90;;;;;;5062491;28;20093;-79
2023/01/17 04:40:03;;;;;;;0.20;0.13;;;2.90;99.90;;;;;;5072824;28;20048;-79
2023/01/17 04:42:29;;;;;;;0.35;0.10;;;2.90;99.90;;;;;;5088799;28;20047;-80
2023/01/17 04:44:55;;;;;;;0.10;0.10;;;2.80;99.90;;;;;;5070730;28;20036;-79
2023/01/17 04:47:20;;;;;;;2.08;0.40;;;2.90;99.90;;;;;;5068854;28;20475;-79
2023/01/17 04:49:46;;;;;;;0.10;0.10;;;2.90;99.90;;;;;;5075199;28;20508;-79
2023/01/17 04:52:13;;;;;;;0.20;0.10;;;2.80;99.90;;;;;;5084863;28;20028;-79
2023/01/17 04:54:39;;;;;;;0.10;0.10;;;2.80;99.90;;;;;;5070978;28;20097;-79
2023/01/17 04:57:05;;;;;;;1.90;0.20;;;2.80;99.90;;;;;;5104689;28;20519;-79
2023/01/17 04:59:31;;;;;;;3.90;0.63;;;2.80;99.90;;;;;;5073011;28;20119;-79
2023/01/17 05:01:57;;;;;;;0.08;0.03;;;2.80;99.90;;;;;;5070789;28;20106;-79
2023/01/17 05:04:22;;;;;;;1.70;0.22;;;2.80;99.90;;;;;;5069588;28;20097;-79
2023/01/17 05:06:48;;;;;;;0.93;0.43;;;2.80;99.90;;;;;;5083743;28;20111;-79
2023/01/17 05:09:13;;;;;;;0.00;0.00;;;2.80;99.90;;;;;;5069280;28;20067;-79
2023/01/17 05:11:39;;;;;;;0.15;0.05;;;2.80;99.90;;;;;;5080514;28;20558;-79
2023/01/17 05:14:05;;;;;;;2.17;0.28;;;2.80;99.90;;;;;;5088761;28;20040;-79
2023/01/17 05:16:30;;;;;;;3.00;0.45;;;2.70;99.90;;;;;;5052860;28;20045;-79
2023/01/17 05:18:56;;;;;;;0.00;0.00;;;2.70;99.90;;;;;;5070586;28;20397;-78
2023/01/17 05:21:21;;;;;;;0.63;0.20;;;2.70;99.90;;;;;;5076925;28;20028;-79
2023/01/17 05:23:47;;;;;;;0.10;0.10;;;2.70;99.90;;;;;;5081356;28;20555;-79
2023/01/17 05:26:13;;;;;;;8.02;0.60;;;2.70;99.90;;;;;;5077598;28;20051;-79
2023/01/17 05:28:38;;;;;;;2.58;0.95;;;2.70;99.90;;;;;;5088589;28;20174;-79
2023/01/17 05:31:04;;;;;;;2.13;0.10;;;2.70;99.90;;;;;;5088350;28;20036;-78
2023/01/17 05:33:30;;;;;;;1.08;0.20;;;2.70;99.90;;;;;;5089610;28;20481;-78
2023/01/17 05:35:56;;;;;;;0.13;0.10;;;2.70;99.90;;;;;;5078051;28;20486;-79
2023/01/17 05:38:22;;;;;;;0.10;0.10;;;2.70;99.90;;;;;;5070125;28;20055;-79
2023/01/17 05:40:48;;;;;;;0.00;0.00;;;2.60;99.90;;;;;;5069054;28;20036;-79
2023/01/17 05:43:14;;;;;;;0.05;0.05;;;2.60;99.90;;;;;;5068989;28;20119;-79
2023/01/17 05:45:40;;;;;;;0.47;0.10;;;2.60;99.90;;;;;;5068171;28;20165;-79
2023/01/17 05:48:06;;;;;;;0.00;0.00;;;2.60;99.90;;;;;;5055122;28;20048;-79
2023/01/17 05:50:36;;;;;;;0.17;0.10;;;2.50;99.90;;;;;;5060960;28;20036;-79
2023/01/17 05:53:04;;;;;;;0.10;0.10;;;2.60;99.90;;;;;;5063208;28;20529;-79
2023/01/17 05:55:31;;;;;;;0.00;0.00;;;2.50;99.90;;;;;;5068398;28;20041;-79
2023/01/17 05:57:58;;;;;;;0.77;0.32;;;2.50;99.90;;;;;;5065564;28;20063;-79
2023/01/17 06:00:24;;;;;;;1.65;0.05;;;2.50;99.90;;;;;;5070548;28;20040;-79
2023/01/17 06:02:52;;;;;;;3.72;0.20;;;2.50;99.90;;;;;;5057874;28;20051;-79
2023/01/17 06:05:18;;;;;;;0.47;0.20;;;2.40;99.90;;;;;;5068496;28;20502;-79
2023/01/17 06:07:45;;;;;;;0.10;0.10;;;2.40;99.90;;;;;;5059777;28;20040;-79
2023/01/17 06:10:11;;;;;;;0.00;0.00;;;2.40;99.90;;;;;;5100104;28;20083;-79
2023/01/17 06:12:37;;;;;;;0.00;0.00;;;2.40;99.90;;;;;;5060385;28;20083;-79
2023/01/17 06:15:02;;;;;;;0.20;0.10;;;2.40;99.90;;;;;;5075989;28;20046;-79
2023/01/17 06:17:28;;;;;;;4.32;0.40;;;2.30;99.90;;;;;;5083559;28;20032;-79
2023/01/17 06:19:53;;;;;;;0.10;0.10;;;2.30;99.90;;;;;;5061862;28;20031;-79
2023/01/17 06:22:19;;;;;;;0.32;0.20;;;2.30;99.90;;;;;;5068026;28;20692;-79
2023/01/17 06:24:45;;;;;;;1.92;0.43;;;2.20;99.90;;;;;;5079870;28;20032;-79
2023/01/17 06:27:10;;;;;;;0.17;0.17;;;2.20;99.90;;;;;;5061889;28;20033;-79
2023/01/17 06:29:36;;;;;;;4.85;0.40;;;2.20;99.90;;;;;;5087530;28;20032;-79
2023/01/17 06:32:02;;;;;;;0.22;0.00;;;2.20;99.90;;;;;;5084699;28;20155;-79
2023/01/17 06:34:28;;;;;;;0.25;0.17;;;2.10;99.90;;;;;;5067594;28;20101;-79
2023/01/17 06:36:53;;;;;;;0.32;0.10;;;2.10;99.90;;;;;;5081062;28;20040;-79
2023/01/17 06:39:19;;;;;;;0.10;0.10;;;2.10;99.90;;;;;;5061957;28;20482;-79
2023/01/17 06:41:45;;;;;;;0.10;0.10;;;2.10;99.90;;;;;;5068025;28;20040;-79
2023/01/17 06:44:10;;;;;;;0.40;0.15;;;2.00;99.90;;;;;;5051422;28;20037;-79
2023/01/17 06:46:36;;;;;;;1.88;0.15;;;2.10;99.90;;;;;;5071946;28;20088;-79
2023/01/17 06:49:02;;;;;;;0.10;0.10;;;2.10;99.90;;;;;;5081165;28;20040;-79
2023/01/17 06:51:27;;;;;;;1.05;0.30;;;2.10;99.90;;;;;;5071241;28;20036;-79
2023/01/17 06:53:53;;;;;;;0.28;0.25;;;2.10;99.90;;;;;;5052630;28;20028;-79
2023/01/17 06:56:19;;;;;;;0.65;0.38;;;2.10;99.90;;;;;;5075057;28;20052;-80
2023/01/17 06:58:49;;;;;;;0.32;0.28;;;2.20;99.90;;;;;;5071951;28;20047;-80
2023/01/17 07:01:15;;;;;;;0.13;0.13;;;2.20;99.90;;;;;;5081086;28;20074;-80
2023/01/17 07:03:41;;;;;;;0.00;0.00;;;2.20;99.90;;;;;;5071743;28;20066;-80
2023/01/17 07:06:08;;;;;;;1.67;0.30;;;2.20;99.90;;;;;;5054536;28;20501;-80
2023/01/17 07:08:34;;;;;;;0.00;0.00;;;2.20;99.90;;;;;;5055366;28;20032;-80
2023/01/17 07:11:02;;;;;;;0.57;0.10;;;2.20;99.90;;;;;;5071204;28;20055;-80
2023/01/17 07:13:29;;;;;;;0.10;0.10;;;2.20;99.90;;;;;;5088095;28;20048;-80
2023/01/17 07:15:55;;;;;;;0.00;0.00;;;2.20;99.90;;;;;;5071325;28;20036;-80
2023/01/17 07:18:22;;;;;;;0.05;0.05;;;2.20;99.90;;;;;;5069902;28;20049;-80
2023/01/17 07:20:49;;;;;;;0.55;0.10;;;2.10;99.90;;;;;;5075713;28;20047;-80
2023/01/17 07:23:15;;;;;;;0.65;0.10;;;2.20;99.90;;;;;;5071177;28;20122;-80
2023/01/17 07:25:41;;;;;;;0.00;0.00;;;2.20;99.90;;;;;;5082068;28;20545;-80
2023/01/17 07:28:07;;;;;;;0.63;0.20;;;2.20;99.90;;;;;;5056626;28;20068;-80
2023/01/17 07:30:32;;;;;;;0.15;0.05;;;2.20;99.90;;;;;;5076220;28;20036;-80
2023/01/17 07:32:58;;;;;;;0.03;0.03;;;2.20;99.90;;;;;;5089844;28;20038;-80
2023/01/17 07:35:27;;;;;;;0.10;0.10;;;2.20;99.90;;;;;;5078086;28;20028;-80
2023/01/17 07:37:53;;;;;;;0.63;0.25;;;2.20;99.90;;;;;;5081414;28;20042;-80
2023/01/17 07:40:21;;;;;;;0.10;0.10;;;2.20;99.90;;;;;;5070523;28;20087;-80
2023/01/17 07:42:46;;;;;;;0.20;0.10;;;2.10;99.90;;;;;;5075744;28;20044;-79
2023/01/17 07:45:14;;;;;;;2.65;0.20;;;2.10;99.90;;;;;;5077641;28;20402;-80
2023/01/17 07:47:39;;;;;;;0.10;0.10;;;2.10;99.90;;;;;;5091469;28;20106;-80
2023/01/17 07:50:06;;;;;;;0.20;0.20;;;2.10;99.90;;;;;;5070832;28;20433;-80
2023/01/17 07:52:32;;;;;;;0.73;0.30;;;2.10;99.90;;;;;;5064957;28;20554;-79
2023/01/17 07:54:57;;;;;;;0.10;0.10;;;2.10;99.90;;;;;;5077479;28;20040;-81
2023/01/17 07:57:23;;;;;;;0.32;0.10;;;2.10;99.90;;;;;;5051549;28;20043;-81
2023/01/17 07:59:51;;;;;;;0.70;0.30;;;2.10;99.90;;;;;;5071862;28;20044;-81
2023/01/17 08:02:20;;;;;;;0.32;0.15;;;2.10;99.90;;;;;;5071094;28;20147;-80
2023/01/17 08:04:46;;;;;;;0.22;0.20;;;2.10;99.90;;;;;;5081582;28;20032;-81
2023/01/17 08:07:12;;;;;;;0.03;0.03;;;2.10;99.90;;;;;;5070841;28;20035;-81
2023/01/17 08:09:42;;;;;;;0.85;0.45;;;2.10;99.90;;;;;;5060722;28;20044;-80
2023/01/17 08:12:08;;;;;;;0.55;0.20;;;2.10;99.90;;;;;;5087829;27;20492;-80
2023/01/17 08:14:33;;;;;;;0.10;0.10;;;2.10;99.90;;;;;;5056478;28;20037;-81
2023/01/17 08:17:09;;;;;;;1.75;0.30;;;2.10;99.90;;;;;;5056171;28;20684;-81
2023/01/17 08:19:34;;;;;;;0.17;0.17;;;2.10;99.90;;;;;;5054764;28;20033;-80
2023/01/17 08:22:00;;;;;;;0.05;0.05;;;2.10;99.90;;;;;;5052947;28;20032;-80
2023/01/17 08:24:25;;;;;;;1.70;0.43;;;2.10;99.90;;;;;;5052119;28;20044;-80
2023/01/17 08:26:53;;;;;;;0.20;0.05;;;2.10;99.90;;;;;;5049698;28;20047;-80
2023/01/17 08:29:19;;;;;;;0.00;0.00;;;2.10;99.90;;;;;;5068536;28;20073;-80
2023/01/17 08:31:45;;;;;;;1.20;0.10;;;2.10;99.90;;;;;;5058427;28;20091;-80
2023/01/17 08:34:12;;;;;;;0.17;0.17;;;2.10;99.90;;;;;;5053508;28;20037;-80
2023/01/17 08:36:39;;;;;;;0.50;0.20;;;2.20;99.90;;;;;;5070524;28;20679;-80
2023/01/17 08:39:05;;;;;;;0.00;0.00;;;2.20;99.90;;;;;;5070990;28;20178;-80
2023/01/17 08:41:31;;;;;;;0.10;0.00;;;2.20;99.90;;;;;;5057273;28;20627;-81
2023/01/17 08:43:56;;;;;;;2.55;0.17;;;2.20;99.90;;;;;;5086288;28;20048;-80
2023/01/17 08:46:23;;;;;;;0.57;0.30;;;2.20;99.90;;;;;;5070646;28;20062;-80
2023/01/17 08:49:01;;;;;;;0.20;0.20;;;2.20;99.90;;;;;;5069203;28;20883;-80
2023/01/17 08:51:27;;;;;;;0.28;0.13;;;2.30;99.90;;;;;;5050648;28;20060;-81
2023/01/17 08:53:55;;;;;;;1.67;0.10;;;2.30;99.90;;;;;;5069679;28;20034;-80
2023/01/17 08:56:22;;;;;;;0.00;0.00;;;2.30;99.90;;;;;;5063522;28;20133;-80
2023/01/17 08:58:48;;;;;;;0.60;0.30;;;2.40;99.90;;;;;;5071003;28;20468;-80
2023/01/17 09:01:14;;;;;;;0.05;0.03;;;2.40;99.90;;;;;;5073830;28;20044;-81
2023/01/17 09:03:40;;;;;;;2.78;0.17;;;2.40;99.90;;;;;;5067389;28;20093;-80
2023/01/17 09:06:08;;;;;;;0.00;0.00;;;2.40;99.90;;;;;;5067672;28;20036;-80
2023/01/17 09:08:34;;;;;;;0.25;0.15;;;2.40;99.90;;;;;;5057137;28;20040;-80
2023/01/17 09:11:11;;;;;;;1.55;0.20;;;2.50;99.90;;;;;;5065071;28;20056;-79
2023/01/17 09:13:38;;;;;;;0.45;0.10;;;2.50;99.90;;;;;;5070617;28;20048;-80
2023/01/17 09:16:04;;;;;;;0.47;0.20;;;2.60;99.90;;;;;;5062106;28;20033;-80
2023/01/17 09:18:32;;;;;;;0.75;0.20;;;2.60;99.90;;;;;;5077234;28;20043;-79
2023/01/17 09:20:58;;;;;;;0.20;0.10;;;2.60;99.90;;;;;;5052240;28;20037;-79
2023/01/17 09:23:28;;;;;;;4.05;0.63;;;2.60;99.90;;;;;;5067439;28;20512;-80
2023/01/17 09:25:56;;;;;;;0.17;0.10;;;2.60;99.90;;;;;;5069907;28;20493;-79
2023/01/17 09:28:22;;;;;;;3.22;0.30;;;2.60;99.90;;;;;;5053022;28;20507;-79
2023/01/17 09:30:48;;;;;;;0.10;0.10;;;2.60;99.90;;;;;;5052325;28;20833;-79
2023/01/17 09:33:15;;;;;;;1.50;0.10;;;2.70;99.90;;;;;;5064159;28;20036;-79
2023/01/17 09:35:40;;;;;;;0.43;0.22;;;2.70;99.90;;;;;;5066004;28;20529;-79
2023/01/17 09:38:06;;;;;;;0.20;0.20;;;2.70;99.90;;;;;;5067670;28;20028;-79
2023/01/17 09:40:32;;;;;;;7.93;0.75;;;2.70;99.90;;;;;;5050946;28;20063;-79
2023/01/17 09:43:06;;;;;;;0.68;0.35;;;2.80;99.90;;;;;;5071254;28;20044;-79
2023/01/17 09:45:33;;;;;;;0.40;0.30;;;2.80;99.90;;;;;;5072124;28;20032;-79
2023/01/17 09:48:04;;;;;;;0.20;0.10;;;2.80;99.90;;;;;;5069439;28;20046;-79
2023/01/17 09:50:37;;;;;;;1.55;0.65;;;2.80;99.90;;;;;;5073144;28;20036;-79
2023/01/17 09:53:11;;;;;;;0.70;0.40;;;2.80;99.90;;;;;;5050123;28;20078;-79
2023/01/17 09:55:41;;;;;;;3.22;0.47;;;2.90;99.90;;;;;;5071038;28;20051;-79
2023/01/17 09:58:35;;;;;;;1.90;0.50;;;2.90;99.90;;;;;;5056955;28;20041;-79
2023/01/17 10:01:22;;;;;;;4.60;0.52;;;2.90;99.90;;;;;;5067053;28;20044;-80
2023/01/17 10:04:20;;;;;;;0.70;0.40;;;2.90;99.90;;;;;;5063272;28;20640;-84
2023/01/17 10:07:07;;;;;;;1.30;0.68;;;3.00;99.90;;;;;;5065055;28;20036;-78
2023/01/17 10:10:08;;;;;;;1.23;0.47;;;3.00;99.90;;;;;;5071382;28;20151;-77
2023/01/17 10:12:47;;;;;;;0.75;0.30;;;3.00;99.90;;;;;;5059631;28;20040;-79
2023/01/17 10:15:27;;;;;;;1.17;0.47;;;3.10;99.90;;;;;;5069304;28;20047;-79
2023/01/17 10:18:28;;;;;;;3.33;0.75;;;3.10;99.90;;;;;;5097976;27;20040;-79
2023/01/17 10:21:03;;;;;;;0.43;0.20;;;3.10;99.90;;;;;;5069696;28;20036;-79
2023/01/17 10:23:44;;;;;;;0.13;0.13;;;3.20;99.90;;;;;;5069275;28;20063;-79
2023/01/17 10:26:25;;;;;;;0.45;0.30;;;3.20;99.90;;;;;;5051133;28;20044;-80
2023/01/17 10:28:59;;;;;;;0.65;0.28;;;3.30;99.90;;;;;;5066758;28;20048;-79
2023/01/17 10:31:26;;;;;;;0.20;0.20;;;3.40;99.90;;;;;;5073224;28;20554;-80
2023/01/17 10:33:54;;;;;;;0.70;0.47;;;3.40;99.90;;;;;;5079009;28;20385;-79
2023/01/17 10:36:33;;;;;;;0.20;0.20;;;3.30;99.90;;;;;;5072552;28;20124;-79
2023/01/17 10:39:18;;;;;;;0.40;0.20;;;3.40;99.90;;;;;;5075849;28;20028;-79
2023/01/17 10:41:51;;;;;;;2.17;0.63;;;3.40;99.90;;;;;;5078409;28;20437;-79
2023/01/17 10:44:42;;;;;;;0.30;0.10;;;3.40;99.90;;;;;;5078439;28;20871;-79
2023/01/17 10:47:11;;;;;;;0.20;0.20;;;3.50;99.90;;;;;;5068137;28;20043;-79
2023/01/17 10:49:42;;;;;;;2.45;0.50;;;3.50;99.90;;;;;;5062453;28;20043;-79
2023/01/17 10:52:36;;;;;;;0.60;0.25;;;3.50;99.90;;;;;;5079464;28;20058;-79
2023/01/17 10:55:32;;;;;;;0.50;0.47;;;3.60;99.90;;;;;;5069540;28;20068;-79
2023/01/17 10:57:57;;;;;;;0.30;0.20;;;3.60;99.90;;;;;;5067826;28;20044;-79
2023/01/17 11:00:26;;;;;;;0.15;0.10;;;3.60;99.90;;;;;;5060678;28;20397;-79
2023/01/17 11:02:52;;;;;;;0.40;0.30;;;3.60;99.90;;;;;;5054320;28;20178;-79
2023/01/17 11:05:23;;;;;;;2.33;0.30;;;3.70;99.90;;;;;;5074982;28;20592;-79
2023/01/17 11:08:16;;;;;;;0.95;0.40;;;3.70;99.90;;;;;;5102057;28;20063;-79
2023/01/17 11:10:49;;;;;;;1.17;0.63;;;3.70;99.90;;;;;;5052072;28;20048;-79
2023/01/17 11:13:31;;;;;;;0.32;0.30;;;3.70;99.90;;;;;;5065478;28;20400;-79
2023/01/17 11:16:04;;;;;;;0.90;0.38;;;3.70;99.90;;;;;;5063050;28;20063;-79
2023/01/17 11:18:33;;;;;;;0.28;0.20;;;3.80;99.90;;;;;;5043490;28;20474;-79
2023/01/17 11:21:12;;;;;;;1.90;0.32;;;3.80;99.90;;;;;;5062011;28;20047;-79
2023/01/17 11:23:46;;;;;;;2.08;0.60;;;3.90;99.90;;;;;;5051045;28;20048;-79
2023/01/17 11:26:28;;;;;;;0.70;0.20;;;3.90;99.90;;;;;;5065429;28;20043;-79
2023/01/17 11:29:12;;;;;;;2.33;0.40;;;3.90;99.90;;;;;;5063940;28;20036;-79
2023/01/17 11:31:38;;;;;;;0.38;0.35;;;4.00;99.90;;;;;;5065352;28;20055;-80
2023/01/17 11:34:12;;;;;;;0.38;0.30;;;4.00;99.90;;;;;;5057350;28;20037;-80
2023/01/17 11:36:38;;;;;;;1.70;0.22;;;4.10;99.90;;;;;;5051958;28;20041;-80
2023/01/17 11:39:16;;;;;;;1.20;0.30;;;4.10;99.90;;;;;;5067365;28;20039;-80
2023/01/17 11:41:43;;;;;;;0.32;0.15;;;4.10;99.90;;;;;;5066204;28;20048;-80
2023/01/17 11:44:30;;;;;;;0.65;0.30;;;4.10;99.90;;;;;;5052003;28;20293;-80
2023/01/17 11:47:10;;;;;;;0.55;0.15;;;4.20;99.90;;;;;;5055675;28;20047;-80
2023/01/17 11:49:37;;;;;;;0.63;0.30;;;4.20;99.90;;;;;;5069565;28;20033;-80
2023/01/17 11:52:16;;;;;;;1.55;0.40;;;4.20;99.90;;;;;;5050882;28;20070;-80
2023/01/17 11:54:45;;;;;;;0.20;0.20;;;4.20;99.90;;;;;;5073458;28;20040;-80
2023/01/17 11:57:26;;;;;;;1.35;0.30;;;4.20;99.90;;;;;;5072199;28;20055;-80
2023/01/17 12:00:07;;;;;;;0.45;0.30;;;4.30;99.90;;;;;;5056694;28;20132;-80
2023/01/17 12:02:53;;;;;;;0.38;0.38;;;4.30;99.90;;;;;;5068300;28;21676;-80
2023/01/17 12:05:26;;;;;;;0.47;0.20;;;4.30;99.90;;;;;;5067519;28;20086;-80
2023/01/17 12:08:14;;;;;;;0.85;0.20;;;4.40;99.90;;;;;;5071730;28;20508;-80
2023/01/17 12:10:55;;;;;;;0.70;0.20;;;4.40;99.90;;;;;;5037876;28;1175916;-80
2023/01/17 12:16:30;;;;;;;0.30;0.30;;;4.40;99.90;;;;;;5076401;28;20044;-80
2023/01/17 12:19:14;;;;;;;0.20;0.20;;;4.40;99.90;;;;;;5076154;28;20036;-80
2023/01/17 12:22:00;;;;;;;0.17;0.13;;;4.40;99.90;;;;;;5071611;28;20079;-80
2023/01/17 12:25:01;;;;;;;0.63;0.35;;;4.50;99.90;;;;;;5072113;28;20054;-79
2023/01/17 12:28:02;;;;;;;0.30;0.30;;;4.50;99.90;;;;;;5072027;28;20070;-80
2023/01/17 12:30:40;;;;;;;0.90;0.30;;;4.50;99.90;;;;;;5072468;28;20429;-79
2023/01/17 12:33:48;;;;;;;0.35;0.30;;;4.50;99.90;;;;;;5054740;28;20049;-79
2023/01/17 12:36:32;;;;;;;1.30;0.30;;;4.50;99.90;;;;;;5053421;28;20529;-79
2023/01/17 12:39:04;;;;;;;1.17;0.40;;;4.50;99.90;;;;;;5054572;28;20115;-79
2023/01/17 12:41:41;;;;;;;1.55;0.20;;;4.50;99.90;;;;;;5052561;28;20076;-79
2023/01/17 12:44:11;;;;;;;0.22;0.20;;;4.60;99.90;;;;;;5053360;28;20071;-79
2023/01/17 12:46:44;;;;;;;0.28;0.17;;;4.60;99.90;;;;;;5057407;28;20067;-79
2023/01/17 12:49:18;;;;;;;0.13;0.13;;;4.70;99.90;;;;;;5083983;28;20063;-79
2023/01/17 12:51:49;;;;;;;0.60;0.30;;;4.70;99.90;;;;;;5073496;28;20032;-79
2023/01/17 12:54:27;;;;;;;0.45;0.25;;;4.70;99.90;;;;;;5089641;28;20036;-79
2023/01/17 12:56:59;;;;;;;0.40;0.30;;;4.80;99.90;;;;;;5088562;28;20559;-79
2023/01/17 12:59:49;;;;;;;0.45;0.25;;;4.80;99.90;;;;;;5057291;28;20120;-79
2023/01/17 13:02:38;;;;;;;0.35;0.28;;;4.80;99.90;;;;;;5070002;28;20044;-79
2023/01/17 13:05:14;;;;;;;0.57;0.30;;;4.90;99.90;;;;;;5052718;28;20555;-79
2023/01/17 13:07:54;;;;;;;1.70;0.50;;;4.90;99.90;;;;;;5089580;28;20050;-79
2023/01/17 13:10:34;;;;;;;2.58;0.75;;;4.90;99.90;;;;;;5065387;28;20057;-79
2023/01/17 13:13:23;;;;;;;0.10;0.10;;;4.90;99.90;;;;;;5086064;28;20036;-79
2023/01/17 13:16:02;;;;;;;0.35;0.20;;;5.00;99.90;;;;;;5073099;28;20036;-79
2023/01/17 13:18:28;;;;;;;3.60;0.35;;;5.00;99.90;;;;;;5089122;28;20043;-79
2023/01/17 13:21:06;;;;;;;1.33;0.30;;;5.00;99.90;;;;;;5086170;28;20039;-79
2023/01/17 13:24:02;;;;;;;0.32;0.20;;;5.00;99.90;;;;;;5066135;28;20039;-79
2023/01/17 13:26:35;;;;;;;0.50;0.38;;;5.00;99.90;;;;;;5055353;28;20040;-79
2023/01/17 13:29:26;;;;;;;0.73;0.25;;;4.90;99.90;;;;;;5068901;28;20048;-79
2023/01/17 13:32:18;;;;;;;0.10;0.10;;;4.90;99.90;;;;;;5068977;28;20036;-79
2023/01/17 13:35:01;;;;;;;0.43;0.10;;;4.90;99.90;;;;;;5078442;28;20040;-79
2023/01/17 13:37:58;;;;;;;0.22;0.10;;;5.00;99.90;;;;;;5078966;28;20039;-80
2023/01/17 13:40:50;;;;;;;0.08;0.00;;;5.00;99.90;;;;;;5071873;28;20028;-78
2023/01/17 13:43:21;;;;;;;1.10;0.20;;;5.00;99.90;;;;;;5071871;28;20071;-80
2023/01/17 13:45:58;;;;;;;0.15;0.15;;;5.00;99.90;;;;;;5070307;28;20041;-80
2023/01/17 13:48:26;;;;;;;0.20;0.20;;;5.00;99.90;;;;;;5059597;28;20387;-80
2023/01/17 13:51:01;;;;;;;0.08;0.08;;;4.90;99.90;;;;;;5075049;28;20062;-79
2023/01/17 13:53:32;;;;;;;0.10;0.10;;;4.80;99.90;;;;;;5076156;28;20032;-80
2023/01/17 13:56:19;;;;;;;0.10;0.10;;;4.80;99.90;;;;;;5074794;28;20327;-80
2023/01/17 13:58:49;;;;;;;0.57;0.40;;;4.70;99.90;;;;;;5069315;28;20079;-80
2023/01/17 14:01:37;;;;;;;0.35;0.13;;;4.70;99.90;;;;;;5073249;28;20155;-80
2023/01/17 14:04:09;;;;;;;0.15;0.10;;;4.60;99.90;;;;;;5103403;27;20044;-80
2023/01/17 14:06:35;;;;;;;0.10;0.10;;;4.60;99.90;;;;;;5082863;28;20048;-80
2023/01/17 14:09:18;;;;;;;0.28;0.25;;;4.60;99.90;;;;;;5063850;28;20682;-80
2023/01/17 14:12:04;;;;;;;0.17;0.17;;;4.50;99.90;;;;;;5056985;28;20130;-80
2023/01/17 14:14:43;;;;;;;0.43;0.03;;;4.50;99.90;;;;;;5077637;28;20044;-80
2023/01/17 14:17:15;;;;;;;0.25;0.10;;;4.50;99.90;;;;;;5075552;28;20032;-80
2023/01/17 14:19:49;;;;;;;0.10;0.10;;;4.50;99.90;;;;;;5076497;28;20032;-80
2023/01/17 14:22:18;;;;;;;0.00;0.00;;;4.50;99.90;;;;;;5073874;28;20381;-80
2023/01/17 14:25:13;;;;;;;1.70;0.35;;;4.50;99.90;;;;;;5069584;28;20202;-79
2023/01/17 14:27:48;;;;;;;0.20;0.10;;;4.50;99.90;;;;;;5057904;28;20147;-80
2023/01/17 14:30:35;;;;;;;0.10;0.10;;;4.40;99.90;;;;;;5063525;28;20024;-79
2023/01/17 14:33:07;;;;;;;0.05;0.00;;;4.40;99.90;;;;;;5077019;28;20102;-80
2023/01/17 14:35:37;;;;;;;1.10;0.35;;;4.40;99.90;;;;;;5077656;28;20046;-80
2023/01/17 14:38:14;;;;;;;0.00;0.00;;;4.40;99.90;;;;;;5078396;28;20147;-80
2023/01/17 14:40:57;;;;;;;0.70;0.20;;;4.40;99.90;;;;;;5060181;28;20044;-80
2023/01/17 14:43:26;;;;;;;0.00;0.00;;;4.40;99.90;;;;;;5060375;28;20497;-80